Windsor, Virginia
Current Conditions -  °F | °C
As of 10:35 AM on Thursday 23 Oct 2014 (Local Time) from KFKN Reporting Station
Clear Clear  
Wind Chill: 57°   Ceiling: Unl
Heat Index: 57°   Visibility: 10mi
Dew Point: 43°   Wind: 13mph
Humidity: 59%   Direction: 310°NW
Pressure: 29.93"   Gusts: 25mph
Location:  36.81°N, 76.74°W
Report Text: KFKN 231435Z AUTO 31011G22KT 10SM CLR 14/06 A2993 RMK AO1
Loading
Personal Weather Stations






























Interactive Weather Map New forecast layout! Learn more

10-Day Weather Forecast

Advertisements
Track Severe Weather on mobile